Jawor — C6YH8 — position and weather

sailwx.info

Track history (hours):
 
Tides and Currents Weather Stations Pressure Air Temp Water Temp Dewpoint Dewpoint Depression Visibility Wind Speed Wind Dir Waves Ship Positions

Jawor

Last reported at 2015-Jun-05 12:27 UTC. Time now 2015-Jul-07 08:53 UTC.
Position N 30°04' E 123°03'.
Warning: this ship's position is 31 days out of date.

Length 229 m; draft 6.5 m.

Type: Cargo ship. MMSI: 311034100.

Date/timePositionNaut miles runAvg speedWind from/ knotsBaromVisibWave heightAir tempDewpointWater temp
2015-Jun-05 12:27N 30°04' E 123°03'2411.5
2015-Jun-05 10:21N 29°50' E 122°40'8 9.8
2015-Jun-05 09:33N 29°45' E 122°33'10 9.3
2015-Jun-05 08:32N 29°43' E 122°22'1212.5
2015-Jun-05 07:33N 29°51' E 122°12'3 1.6
2015-Jun-05 05:24N 29°54' E 122°13'0 0.2
2015-Jun-05 04:04N 29°54' E 122°13'0 0.2
2015-Jun-05 03:33N 29°54' E 122°13'9 9.0
2015-Jun-05 02:33N 29°48' E 122°05'0 0.4
2015-Jun-05 01:31N 29°47' E 122°05'0 0.1
2015-Jun-05 00:31N 29°47' E 122°05'0 0.1
2015-Jun-04 22:25N 29°47' E 122°05'0 0.0
2015-Jun-04 20:19N 29°47' E 122°05'0 0.1
2015-Jun-04 19:07N 29°47' E 122°05'0 0.2
2015-Jun-04 18:13N 29°47' E 122°05'0 0.0
2015-Jun-04 17:25N 29°47' E 122°05'0 0.0
2015-Jun-04 16:25N 29°47' E 122°05'0 0.0
2015-Jun-04 14:31N 29°47' E 122°05'1 0.2
2015-Jun-04 08:33N 29°47' E 122°04'0 0.4
2015-Jun-04 07:22N 29°47' E 122°04'0 0.0
2015-Jun-04 06:28N 29°47' E 122°04'0 0.0
2015-Jun-04 05:22N 29°47' E 122°04'0 0.0
2015-Jun-04 04:28N 29°47' E 122°04'0 0.0
2015-Jun-04 03:16N 29°47' E 122°04'0 0.0
2015-Jun-04 02:16N 29°47' E 122°04'0 0.0
2015-Jun-04 01:28N 29°47' E 122°04'0 0.0
2015-Jun-04 00:28N 29°47' E 122°04'0 0.0
2015-Jun-03 23:28N 29°47' E 122°04'0 0.0
2015-Jun-03 22:10N 29°47' E 122°04'0 0.0
2015-Jun-03 21:22N 29°47' E 122°04'0 0.0
2015-Jun-03 20:28N 29°47' E 122°04'0 0.0
2015-Jun-03 19:22N 29°47' E 122°04'0 0.0
2015-Jun-03 18:28N 29°47' E 122°04'0 0.0
2015-Jun-03 17:22N 29°47' E 122°04'0 0.0
2015-Jun-03 16:10N 29°47' E 122°04'0 0.0
2015-Jun-03 15:28N 29°47' E 122°04'0 0.0
2015-Jun-03 14:28N 29°47' E 122°04'0 0.0
2015-Jun-03 13:10N 29°47' E 122°04'0 0.0
2015-Jun-03 11:23N 29°47' E 122°04'0 0.1
2015-Jun-03 10:22N 29°47' E 122°04'0 0.1
2015-Jun-03 09:16N 29°47' E 122°04'0 0.0
2015-Jun-03 08:28N 29°47' E 122°04'0 0.0
2015-Jun-03 07:10N 29°47' E 122°04'0 0.0
2015-Jun-03 06:16N 29°47' E 122°04'0 0.0
2015-Jun-03 05:22N 29°47' E 122°04'0 0.0
2015-Jun-03 02:17N 29°47' E 122°04'0 0.0
2015-Jun-03 00:28N 29°47' E 122°04'0 0.0
2015-Jun-02 23:28N 29°47' E 122°04'0 0.0
2015-Jun-02 22:22N 29°47' E 122°04'0 0.0
2015-Jun-02 21:04N 29°47' E 122°04'0 0.0
2015-Jun-02 20:22N 29°47' E 122°04'0 0.0
2015-Jun-02 18:22N 29°47' E 122°04'0 0.0
2015-Jun-02 17:28N 29°47' E 122°04'0 0.0
2015-Jun-02 16:28N 29°47' E 122°04'0 0.0
2015-Jun-02 15:28N 29°47' E 122°04'0 0.0
2015-Jun-02 11:28N 29°47' E 122°04'0 0.0
2015-Jun-02 09:16N 29°47' E 122°04'0 0.0
2015-Jun-02 07:28N 29°47' E 122°04'  
Track history (hours):
 
Tides and Currents Weather Stations Pressure Air Temp Water Temp Dewpoint Dewpoint Depression Visibility Wind Speed Wind Dir Waves Ship Positions

Jawor

Last reported at 2015-Jun-05 12:27 UTC. Time now 2015-Jul-07 08:53 UTC.
Position N 30°04' E 123°03'.
Warning: this ship's position is 31 days out of date.

Length 229 m; draft 6.5 m.

Type: Cargo ship. MMSI: 311034100.

Date/timePositionNaut miles runAvg speedWind from/ knotsBaromVisibWave heightAir tempDewpointWater temp
2015-Jun-05 12:27N 30°04' E 123°03'2411.5
2015-Jun-05 10:21N 29°50' E 122°40'8 9.8
2015-Jun-05 09:33N 29°45' E 122°33'10 9.3
2015-Jun-05 08:32N 29°43' E 122°22'1212.5
2015-Jun-05 07:33N 29°51' E 122°12'3 1.6
2015-Jun-05 05:24N 29°54' E 122°13'0 0.2
2015-Jun-05 04:04N 29°54' E 122°13'0 0.2
2015-Jun-05 03:33N 29°54' E 122°13'9 9.0
2015-Jun-05 02:33N 29°48' E 122°05'0 0.4
2015-Jun-05 01:31N 29°47' E 122°05'0 0.1
2015-Jun-05 00:31N 29°47' E 122°05'0 0.1
2015-Jun-04 22:25N 29°47' E 122°05'0 0.0
2015-Jun-04 20:19N 29°47' E 122°05'0 0.1
2015-Jun-04 19:07N 29°47' E 122°05'0 0.2
2015-Jun-04 18:13N 29°47' E 122°05'0 0.0
2015-Jun-04 17:25N 29°47' E 122°05'0 0.0
2015-Jun-04 16:25N 29°47' E 122°05'0 0.0
2015-Jun-04 14:31N 29°47' E 122°05'1 0.2
2015-Jun-04 08:33N 29°47' E 122°04'0 0.4
2015-Jun-04 07:22N 29°47' E 122°04'0 0.0
2015-Jun-04 06:28N 29°47' E 122°04'0 0.0
2015-Jun-04 05:22N 29°47' E 122°04'0 0.0
2015-Jun-04 04:28N 29°47' E 122°04'0 0.0
2015-Jun-04 03:16N 29°47' E 122°04'0 0.0
2015-Jun-04 02:16N 29°47' E 122°04'0 0.0
2015-Jun-04 01:28N 29°47' E 122°04'0 0.0
2015-Jun-04 00:28N 29°47' E 122°04'0 0.0
2015-Jun-03 23:28N 29°47' E 122°04'0 0.0
2015-Jun-03 22:10N 29°47' E 122°04'0 0.0
2015-Jun-03 21:22N 29°47' E 122°04'0 0.0
2015-Jun-03 20:28N 29°47' E 122°04'0 0.0
2015-Jun-03 19:22N 29°47' E 122°04'0 0.0
2015-Jun-03 18:28N 29°47' E 122°04'0 0.0
2015-Jun-03 17:22N 29°47' E 122°04'0 0.0
2015-Jun-03 16:10N 29°47' E 122°04'0 0.0
2015-Jun-03 15:28N 29°47' E 122°04'0 0.0
2015-Jun-03 14:28N 29°47' E 122°04'0 0.0
2015-Jun-03 13:10N 29°47' E 122°04'0 0.0
2015-Jun-03 11:23N 29°47' E 122°04'0 0.1
2015-Jun-03 10:22N 29°47' E 122°04'0 0.1
2015-Jun-03 09:16N 29°47' E 122°04'0 0.0
2015-Jun-03 08:28N 29°47' E 122°04'0 0.0
2015-Jun-03 07:10N 29°47' E 122°04'0 0.0
2015-Jun-03 06:16N 29°47' E 122°04'0 0.0
2015-Jun-03 05:22N 29°47' E 122°04'0 0.0
2015-Jun-03 02:17N 29°47' E 122°04'0 0.0
2015-Jun-03 00:28N 29°47' E 122°04'0 0.0
2015-Jun-02 23:28N 29°47' E 122°04'0 0.0
2015-Jun-02 22:22N 29°47' E 122°04'0 0.0
2015-Jun-02 21:04N 29°47' E 122°04'0 0.0
2015-Jun-02 20:22N 29°47' E 122°04'0 0.0
2015-Jun-02 18:22N 29°47' E 122°04'0 0.0
2015-Jun-02 17:28N 29°47' E 122°04'0 0.0
2015-Jun-02 16:28N 29°47' E 122°04'0 0.0
2015-Jun-02 15:28N 29°47' E 122°04'0 0.0
2015-Jun-02 11:28N 29°47' E 122°04'0 0.0
2015-Jun-02 09:16N 29°47' E 122°04'0 0.0
2015-Jun-02 07:28N 29°47' E 122°04'  

Dump ship's entire track history